createdAt,value
2019-03-27T00:00:18.905Z,12.90
2019-03-27T00:02:49.546Z,16.87
2019-03-27T00:05:20.093Z,15.13
2019-03-27T00:07:50.946Z,16.07
2019-03-27T00:10:21.291Z,13.93
2019-03-27T00:12:51.672Z,16.93
2019-03-27T00:15:22.576Z,22.33
2019-03-27T00:17:53.140Z,16.17
2019-03-27T00:20:23.683Z,19.63
2019-03-27T00:22:57.793Z,18.33
2019-03-27T00:25:28.357Z,18.33
2019-03-27T00:27:58.902Z,21.17
2019-03-27T00:30:29.607Z,21.20
2019-03-27T00:33:02.502Z,22.73
2019-03-27T00:35:34.328Z,25.97
2019-03-27T00:38:05.091Z,25.90
2019-03-27T00:40:35.780Z,27.77
2019-03-27T00:43:06.509Z,26.67
2019-03-27T00:45:37.806Z,20.73
2019-03-27T00:48:08.535Z,26.50
2019-03-27T00:50:39.029Z,21.37
2019-03-27T00:53:09.447Z,24.27
2019-03-27T00:55:40.180Z,26.37
2019-03-27T00:58:10.876Z,22.80
2019-03-27T01:00:44.746Z,21.00
2019-03-27T01:03:15.421Z,29.90
2019-03-27T01:05:45.966Z,29.57
2019-03-27T01:08:16.908Z,32.23
2019-03-27T01:10:47.602Z,23.00
2019-03-27T01:13:18.166Z,23.83
2019-03-27T01:15:48.840Z,29.00
2019-03-27T01:18:19.285Z,21.90
2019-03-27T01:20:49.726Z,29.10
2019-03-27T01:23:20.295Z,20.97
2019-03-27T01:25:51.137Z,24.73
2019-03-27T01:28:21.698Z,34.93
2019-03-27T01:30:52.579Z,35.17
2019-03-27T01:33:23.378Z,31.40
2019-03-27T01:35:53.721Z,25.73
2019-03-27T01:38:24.363Z,20.97
2019-03-27T01:40:54.991Z,23.87
2019-03-27T01:43:25.615Z,21.67
2019-03-27T01:45:56.849Z,28.23
2019-03-27T01:48:27.491Z,34.23
2019-03-27T01:50:58.213Z,31.57
2019-03-27T01:53:29.740Z,30.63
2019-03-27T01:56:00.214Z,33.43
2019-03-27T01:58:30.821Z,38.70
2019-03-27T02:01:01.445Z,36.83
2019-03-27T02:03:32.439Z,35.73
2019-03-27T02:06:02.999Z,38.97
2019-03-27T02:08:33.391Z,37.53
2019-03-27T02:11:03.868Z,36.27
2019-03-27T02:13:34.696Z,30.77
2019-03-27T02:16:07.364Z,22.80
2019-03-27T02:18:38.275Z,24.83
2019-03-27T02:21:09.161Z,23.23
2019-03-27T02:23:39.678Z,26.07
2019-03-27T02:26:11.410Z,25.50
2019-03-27T02:28:42.125Z,25.23
2019-03-27T02:31:12.820Z,22.37
2019-03-27T02:33:43.321Z,16.10
2019-03-27T02:36:13.722Z,21.27
2019-03-27T02:38:44.444Z,23.17
2019-03-27T02:41:14.975Z,25.10
2019-03-27T02:43:46.115Z,23.27
2019-03-27T02:46:24.329Z,17.67
2019-03-27T02:48:49.958Z,22.83
2019-03-27T02:51:20.575Z,29.40
2019-03-27T02:53:51.612Z,18.90
2019-03-27T02:56:21.939Z,25.80
2019-03-27T02:58:52.387Z,29.23
2019-03-27T03:01:22.800Z,26.50
2019-03-27T03:03:53.286Z,19.73
2019-03-27T03:06:24.075Z,23.40
2019-03-27T03:08:55.512Z,20.03
2019-03-27T03:11:25.879Z,17.17
2019-03-27T03:13:56.365Z,21.20
2019-03-27T03:16:41.214Z,19.50
2019-03-27T03:18:59.046Z,18.60
2019-03-27T03:21:29.540Z,24.77
2019-03-27T03:24:00.031Z,20.60
2019-03-27T03:26:30.901Z,22.40
2019-03-27T03:29:01.499Z,19.87
2019-03-27T03:31:31.977Z,21.27
2019-03-27T03:34:02.650Z,21.40
2019-03-27T03:36:34.060Z,20.60
2019-03-27T03:39:06.136Z,15.53
2019-03-27T03:41:36.593Z,19.10
2019-03-27T03:44:07.288Z,22.33
2019-03-27T03:46:38.634Z,27.00
2019-03-27T03:49:10.168Z,22.30
2019-03-27T03:51:40.794Z,22.20
2019-03-27T03:54:11.789Z,20.60
2019-03-27T03:56:42.241Z,22.10
2019-03-27T03:59:12.944Z,22.00
2019-03-27T04:01:44.156Z,20.47
2019-03-27T04:04:14.892Z,26.27
2019-03-27T04:06:45.300Z,17.87
2019-03-27T04:09:15.885Z,21.50
2019-03-27T04:11:46.695Z,20.50
2019-03-27T04:14:18.317Z,22.77
2019-03-27T04:16:48.720Z,26.17
2019-03-27T04:19:19.613Z,22.50
2019-03-27T04:21:50.179Z,33.37
2019-03-27T04:24:20.527Z,33.53
2019-03-27T04:26:51.347Z,35.27
2019-03-27T04:29:22.226Z,36.30
2019-03-27T04:31:52.731Z,36.93
2019-03-27T04:34:23.275Z,35.90
2019-03-27T04:36:53.859Z,29.90
2019-03-27T04:39:24.746Z,31.80
2019-03-27T04:41:55.184Z,24.17
2019-03-27T04:44:25.895Z,23.43
2019-03-27T04:46:56.568Z,26.27
2019-03-27T04:49:27.243Z,27.53
2019-03-27T04:51:57.807Z,24.83
2019-03-27T04:54:28.643Z,24.90
2019-03-27T04:56:59.052Z,21.30
2019-03-27T04:59:29.498Z,15.97
2019-03-27T05:01:59.862Z,20.07
2019-03-27T05:04:30.631Z,20.33
2019-03-27T05:07:01.087Z,22.87
2019-03-27T05:09:31.909Z,23.30
2019-03-27T05:12:02.494Z,20.60
2019-03-27T05:14:32.999Z,21.13
2019-03-27T05:17:03.585Z,23.47
2019-03-27T05:19:34.098Z,22.57
2019-03-27T05:22:04.787Z,27.10
2019-03-27T05:24:35.407Z,28.63
2019-03-27T05:27:06.023Z,31.63
2019-03-27T05:29:36.999Z,29.27
2019-03-27T05:32:07.610Z,25.93
2019-03-27T05:34:38.233Z,29.10
2019-03-27T05:37:08.972Z,25.50
2019-03-27T05:39:39.659Z,26.20
2019-03-27T05:42:10.267Z,33.17
2019-03-27T05:44:41.385Z,38.17
2019-03-27T05:47:12.180Z,35.87
2019-03-27T05:49:42.795Z,30.53
2019-03-27T05:52:17.318Z,38.67
2019-03-27T05:54:47.637Z,29.53
2019-03-27T05:57:18.075Z,26.97
2019-03-27T05:59:48.738Z,25.83
2019-03-27T06:02:19.650Z,29.27
2019-03-27T06:04:50.397Z,22.03
2019-03-27T06:07:20.949Z,26.23
2019-03-27T06:09:51.749Z,23.37
2019-03-27T06:12:22.435Z,22.13
2019-03-27T06:14:54.324Z,19.93
2019-03-27T06:17:24.823Z,27.73
2019-03-27T06:19:55.382Z,22.03
2019-03-27T06:22:26.295Z,18.63
2019-03-27T06:24:56.741Z,17.73
2019-03-27T06:27:27.488Z,17.27
2019-03-27T06:29:58.424Z,15.47
2019-03-27T06:32:28.849Z,20.43
2019-03-27T06:34:59.297Z,16.40
2019-03-27T06:37:29.747Z,12.07
2019-03-27T06:40:00.487Z,17.40
2019-03-27T06:42:30.811Z,17.30
2019-03-27T06:45:01.547Z,22.10
2019-03-27T06:47:32.237Z,14.30
2019-03-27T06:50:02.859Z,17.73
2019-03-27T06:52:33.563Z,17.40
2019-03-27T06:55:06.001Z,17.33
2019-03-27T06:57:36.960Z,16.40
2019-03-27T07:00:09.404Z,15.13
2019-03-27T07:02:40.236Z,15.70
2019-03-27T07:05:10.718Z,16.03
2019-03-27T07:07:41.492Z,15.67
2019-03-27T07:10:12.386Z,17.07
2019-03-27T07:12:43.217Z,14.57
2019-03-27T07:15:13.818Z,16.90
2019-03-27T07:17:44.579Z,13.23
2019-03-27T07:20:15.291Z,14.27
2019-03-27T07:22:46.223Z,14.50
2019-03-27T07:25:16.730Z,16.97
2019-03-27T07:27:47.178Z,15.30
2019-03-27T07:30:18.175Z,13.67
2019-03-27T07:32:48.947Z,14.60
2019-03-27T07:35:19.894Z,13.60
2019-03-27T07:37:50.522Z,12.13
2019-03-27T07:40:21.094Z,17.10
2019-03-27T07:42:51.796Z,14.27
2019-03-27T07:45:22.346Z,13.87
2019-03-27T07:47:53.801Z,14.77
2019-03-27T07:50:24.423Z,14.27
2019-03-27T07:52:55.180Z,11.97
2019-03-27T07:55:25.794Z,11.63
2019-03-27T07:57:56.814Z,14.83
2019-03-27T08:00:27.574Z,12.00
2019-03-27T08:02:58.429Z,11.13
2019-03-27T08:05:29.014Z,10.13
2019-03-27T08:07:59.629Z,9.97
2019-03-27T08:10:30.539Z,12.10
2019-03-27T08:13:01.376Z,9.97
2019-03-27T08:15:31.782Z,9.77
2019-03-27T08:18:02.556Z,10.20
2019-03-27T08:20:33.169Z,8.57
2019-03-27T08:23:03.751Z,9.93
2019-03-27T08:25:34.877Z,9.30
2019-03-27T08:28:06.344Z,10.17
2019-03-27T08:30:38.242Z,13.20
2019-03-27T08:33:09.934Z,11.97
2019-03-27T08:35:41.310Z,8.77
2019-03-27T08:38:15.084Z,11.13
2019-03-27T08:40:47.212Z,8.50
2019-03-27T08:43:21.425Z,8.50
2019-03-27T08:45:52.407Z,9.00
2019-03-27T08:48:27.639Z,8.00
2019-03-27T08:51:00.602Z,7.43
2019-03-27T08:53:33.454Z,9.30
2019-03-27T08:56:05.923Z,7.23
2019-03-27T08:58:39.192Z,10.17
2019-03-27T09:01:10.422Z,9.07
2019-03-27T09:03:43.981Z,11.07
2019-03-27T09:06:15.161Z,6.47
2019-03-27T09:08:46.940Z,8.10
2019-03-27T09:11:19.867Z,7.97
2019-03-27T09:13:51.045Z,8.80
2019-03-27T09:16:22.070Z,6.10
2019-03-27T09:18:53.816Z,7.53
2019-03-27T09:21:26.277Z,4.47
2019-03-27T09:23:57.289Z,6.73
2019-03-27T09:26:28.153Z,7.20
2019-03-27T09:28:58.579Z,5.43
2019-03-27T09:31:29.510Z,4.80
2019-03-27T09:34:00.281Z,6.03
2019-03-27T09:36:31.001Z,4.43
2019-03-27T09:39:01.629Z,5.80
2019-03-27T09:41:32.993Z,6.27
2019-03-27T09:44:03.448Z,4.37
2019-03-27T09:46:34.050Z,5.00
2019-03-27T09:49:05.678Z,7.10
2019-03-27T09:51:37.255Z,5.83
2019-03-27T09:54:09.090Z,3.60
2019-03-27T09:56:40.847Z,4.77
2019-03-27T09:59:11.968Z,7.30
2019-03-27T10:01:42.988Z,4.47
2019-03-27T10:04:14.226Z,8.60
2019-03-27T10:06:46.611Z,8.00
2019-03-27T10:09:17.182Z,7.27
2019-03-27T10:11:48.129Z,6.83
2019-03-27T10:14:18.750Z,7.77
2019-03-27T10:16:49.303Z,5.23
2019-03-27T10:19:19.649Z,6.07
2019-03-27T10:21:50.310Z,10.00
2019-03-27T10:24:20.868Z,6.27
2019-03-27T10:26:51.727Z,6.70
2019-03-27T10:29:23.901Z,8.60
2019-03-27T10:31:56.080Z,6.00
2019-03-27T10:34:27.103Z,6.23
2019-03-27T10:36:57.797Z,2.93
2019-03-27T10:39:29.015Z,6.87
2019-03-27T10:41:59.550Z,5.77
2019-03-27T10:44:30.558Z,5.83
2019-03-27T10:47:03.457Z,4.53
2019-03-27T10:49:36.679Z,8.57
2019-03-27T10:52:07.215Z,5.03
2019-03-27T10:54:37.849Z,8.23
2019-03-27T10:57:08.575Z,6.50
2019-03-27T10:59:41.116Z,4.07
2019-03-27T11:02:11.840Z,4.23
2019-03-27T11:04:42.788Z,6.70
2019-03-27T11:07:13.719Z,6.53
2019-03-27T11:09:44.833Z,7.23
2019-03-27T11:12:15.491Z,5.40
2019-03-27T11:14:46.391Z,5.97
2019-03-27T11:17:17.342Z,5.87
2019-03-27T11:19:48.532Z,4.03
2019-03-27T11:22:19.050Z,5.83
2019-03-27T11:24:49.816Z,7.57
2019-03-27T11:27:21.340Z,5.60
2019-03-27T11:29:52.817Z,3.60
2019-03-27T11:32:24.764Z,4.23
2019-03-27T11:34:56.302Z,8.00
2019-03-27T11:37:26.918Z,5.43
2019-03-27T11:39:57.526Z,5.33
2019-03-27T11:42:29.249Z,4.57
2019-03-27T11:45:00.497Z,7.10
2019-03-27T11:47:31.465Z,4.07
2019-03-27T11:50:02.068Z,5.17
2019-03-27T11:52:33.915Z,3.00
2019-03-27T11:55:05.349Z,3.17
2019-03-27T11:57:36.094Z,5.93
2019-03-27T12:00:09.948Z,6.33
2019-03-27T12:02:40.440Z,5.03
2019-03-27T12:05:11.010Z,4.53
2019-03-27T12:07:42.004Z,5.03
2019-03-27T12:10:13.100Z,7.07
2019-03-27T12:12:48.247Z,7.23
2019-03-27T12:15:21.940Z,3.90
2019-03-27T12:17:53.040Z,3.93
2019-03-27T12:20:23.536Z,4.30
2019-03-27T12:22:57.830Z,4.90
2019-03-27T12:25:27.072Z,9.63
2019-03-27T12:27:58.333Z,4.40
2019-03-27T12:30:29.202Z,3.93
2019-03-27T12:33:00.194Z,7.13
2019-03-27T12:35:30.829Z,6.53
2019-03-27T12:38:04.282Z,10.60
2019-03-27T12:40:34.509Z,5.53
2019-03-27T12:43:05.879Z,6.50
2019-03-27T12:45:36.706Z,4.63
2019-03-27T12:48:07.844Z,7.97
2019-03-27T12:50:39.343Z,7.37
2019-03-27T12:53:09.689Z,7.20
2019-03-27T12:55:40.921Z,8.73
2019-03-27T12:58:12.031Z,9.73
2019-03-27T13:00:43.785Z,7.07
2019-03-27T13:03:14.697Z,6.23
2019-03-27T13:05:45.258Z,6.63
2019-03-27T13:08:15.818Z,5.73
2019-03-27T13:10:46.294Z,8.50
2019-03-27T13:13:18.190Z,7.60
2019-03-27T13:15:48.690Z,9.53
2019-03-27T13:18:19.560Z,7.33
2019-03-27T13:20:50.064Z,7.73
2019-03-27T13:23:21.182Z,7.63
2019-03-27T13:25:51.618Z,6.17
2019-03-27T13:28:22.384Z,7.20
2019-03-27T13:30:53.248Z,6.30
2019-03-27T13:33:23.623Z,6.07
2019-03-27T13:35:54.159Z,7.23
2019-03-27T13:38:24.939Z,7.20
2019-03-27T13:40:55.691Z,5.47
2019-03-27T13:43:26.679Z,4.67
2019-03-27T13:45:57.136Z,5.20
2019-03-27T13:48:27.825Z,7.87
2019-03-27T13:50:58.725Z,12.80
2019-03-27T13:53:29.523Z,5.63
2019-03-27T13:56:00.305Z,6.43
2019-03-27T13:58:31.203Z,4.97
2019-03-27T14:01:01.956Z,5.63
2019-03-27T14:03:32.904Z,5.40
2019-03-27T14:06:04.142Z,6.63
2019-03-27T14:08:36.060Z,9.67
2019-03-27T14:11:07.177Z,5.50
2019-03-27T14:13:43.148Z,5.70
2019-03-27T14:16:12.380Z,9.33
2019-03-27T14:18:43.572Z,11.40
2019-03-27T14:21:14.346Z,8.97
2019-03-27T14:23:44.890Z,7.23
2019-03-27T14:26:15.665Z,9.40
2019-03-27T14:28:47.438Z,9.50
2019-03-27T14:31:18.886Z,6.13
2019-03-27T14:33:49.341Z,8.37
2019-03-27T14:36:20.711Z,8.47
2019-03-27T14:38:51.272Z,8.50
2019-03-27T14:41:21.879Z,8.27
2019-03-27T14:43:52.646Z,10.07
2019-03-27T14:46:24.628Z,6.93
2019-03-27T14:48:55.301Z,7.90
2019-03-27T14:51:27.311Z,7.07
2019-03-27T14:53:58.643Z,6.53
2019-03-27T14:56:29.814Z,5.93
2019-03-27T14:59:01.554Z,7.67
2019-03-27T15:01:35.474Z,9.40
2019-03-27T15:04:05.413Z,8.27
2019-03-27T15:06:36.035Z,10.70
2019-03-27T15:09:08.765Z,11.80
2019-03-27T15:11:39.775Z,8.50
2019-03-27T15:14:10.644Z,9.63
2019-03-27T15:16:41.357Z,8.33
2019-03-27T15:19:12.438Z,8.93
2019-03-27T15:21:43.567Z,7.93
2019-03-27T15:24:15.902Z,8.03
2019-03-27T15:26:46.775Z,7.70
2019-03-27T15:29:18.508Z,6.80
2019-03-27T15:31:50.136Z,9.40
2019-03-27T15:34:21.045Z,8.53
2019-03-27T15:36:52.318Z,10.33
2019-03-27T15:39:22.892Z,5.87
2019-03-27T15:41:53.396Z,10.33
2019-03-27T15:44:24.506Z,10.27
2019-03-27T15:46:58.817Z,7.90
2019-03-27T15:49:29.876Z,8.03
2019-03-27T15:52:01.741Z,8.40
2019-03-27T15:54:32.416Z,8.37
2019-03-27T15:57:03.272Z,9.77
2019-03-27T15:59:33.689Z,7.37
2019-03-27T16:02:07.055Z,8.00
2019-03-27T16:04:38.858Z,11.67
2019-03-27T16:07:09.632Z,9.13
2019-03-27T16:09:40.151Z,8.50
2019-03-27T16:12:10.813Z,8.83
2019-03-27T16:14:41.462Z,8.93
2019-03-27T16:17:13.698Z,7.90
2019-03-27T16:19:44.581Z,9.60
2019-03-27T16:22:15.618Z,11.13
2019-03-27T16:24:46.725Z,9.87
2019-03-27T16:27:17.927Z,7.13
2019-03-27T16:29:48.703Z,8.17
2019-03-27T16:32:19.824Z,6.53
2019-03-27T16:34:50.958Z,7.87
2019-03-27T16:37:21.697Z,10.47
2019-03-27T16:39:53.023Z,8.47
2019-03-27T16:42:23.501Z,8.43
2019-03-27T16:44:55.614Z,7.97
2019-03-27T16:47:26.336Z,9.07
2019-03-27T16:49:57.065Z,10.83
2019-03-27T16:52:27.933Z,9.93
2019-03-27T16:54:59.331Z,8.93
2019-03-27T16:57:30.161Z,8.93
2019-03-27T17:00:00.750Z,9.70
2019-03-27T17:02:32.480Z,11.53
2019-03-27T17:05:04.098Z,11.57
2019-03-27T17:07:34.867Z,13.20
2019-03-27T17:10:07.400Z,16.27
2019-03-27T17:12:39.334Z,13.67
2019-03-27T17:15:11.160Z,15.93
2019-03-27T17:17:42.274Z,13.67
2019-03-27T17:20:13.346Z,9.10
2019-03-27T17:22:44.403Z,8.37
2019-03-27T17:25:15.380Z,9.60
2019-03-27T17:27:46.137Z,10.50
2019-03-27T17:30:17.470Z,11.97
2019-03-27T17:32:49.796Z,11.90
2019-03-27T17:35:21.072Z,13.43
2019-03-27T17:37:51.987Z,12.07
2019-03-27T17:40:23.207Z,13.20
2019-03-27T17:42:54.999Z,13.43
2019-03-27T17:45:25.982Z,12.37
2019-03-27T17:47:57.939Z,17.63
2019-03-27T17:50:29.566Z,17.77
2019-03-27T17:53:00.662Z,16.93
2019-03-27T17:55:31.432Z,15.97
2019-03-27T17:58:02.432Z,15.10
2019-03-27T18:00:42.161Z,19.70
2019-03-27T18:03:13.935Z,16.70
2019-03-27T18:05:45.818Z,14.20
2019-03-27T18:08:16.721Z,17.40
2019-03-27T18:10:49.167Z,16.87
2019-03-27T18:13:20.132Z,20.73
2019-03-27T18:15:50.901Z,17.70
2019-03-27T18:18:23.046Z,19.30
2019-03-27T18:20:53.472Z,17.80
2019-03-27T18:23:24.295Z,14.90
2019-03-27T18:25:55.245Z,18.80
2019-03-27T18:28:26.562Z,15.93
2019-03-27T18:30:57.308Z,17.63
2019-03-27T18:33:28.737Z,21.90
2019-03-27T18:36:01.199Z,21.13
2019-03-27T18:38:33.295Z,17.03
2019-03-27T18:41:06.373Z,18.10
2019-03-27T18:43:37.756Z,19.20
2019-03-27T18:46:08.658Z,15.20
2019-03-27T18:48:39.496Z,18.87
2019-03-27T18:51:10.169Z,16.57
2019-03-27T18:53:41.771Z,19.83
2019-03-27T18:56:13.712Z,15.20
2019-03-27T18:58:44.545Z,16.00
2019-03-27T19:01:15.347Z,16.93
2019-03-27T19:03:48.802Z,16.17
2019-03-27T19:06:19.414Z,15.30
2019-03-27T19:08:51.643Z,14.93
2019-03-27T19:11:22.516Z,15.27
2019-03-27T19:13:58.503Z,17.47
2019-03-27T19:16:29.789Z,16.57
2019-03-27T19:19:00.715Z,15.07
2019-03-27T19:21:31.669Z,14.77
2019-03-27T19:24:13.203Z,16.30
2019-03-27T19:26:34.773Z,13.80
2019-03-27T19:29:05.428Z,15.07
2019-03-27T19:31:36.113Z,15.67
2019-03-27T19:34:09.055Z,15.30
2019-03-27T19:36:39.481Z,14.70
2019-03-27T19:39:10.446Z,17.27
2019-03-27T19:41:41.856Z,16.37
2019-03-27T19:44:13.519Z,12.53
2019-03-27T19:46:44.629Z,15.27
2019-03-27T19:49:15.210Z,13.70
2019-03-27T19:51:47.334Z,14.50
2019-03-27T19:54:27.148Z,14.17
2019-03-27T19:56:53.520Z,15.37
2019-03-27T19:59:27.376Z,12.37
2019-03-27T20:01:58.998Z,14.43
2019-03-27T20:04:29.939Z,14.67
2019-03-27T20:07:01.139Z,13.60
2019-03-27T20:09:31.842Z,14.23
2019-03-27T20:12:02.286Z,16.10
2019-03-27T20:14:33.730Z,13.40
2019-03-27T20:17:07.702Z,15.70
2019-03-27T20:19:38.816Z,14.87
2019-03-27T20:22:10.369Z,12.37
2019-03-27T20:24:41.490Z,13.37
2019-03-27T20:27:13.043Z,20.20
2019-03-27T20:29:46.523Z,15.63
2019-03-27T20:32:19.562Z,16.23
2019-03-27T20:34:52.032Z,20.13
2019-03-27T20:37:24.203Z,13.40
2019-03-27T20:39:55.346Z,16.23
2019-03-27T20:42:26.930Z,13.40
2019-03-27T20:45:00.401Z,15.20
2019-03-27T20:47:32.351Z,14.90
2019-03-27T20:50:03.148Z,13.87
2019-03-27T20:52:34.186Z,12.93
2019-03-27T20:55:07.936Z,14.70
2019-03-27T20:57:38.689Z,17.23
2019-03-27T21:00:09.336Z,15.83
2019-03-27T21:02:40.429Z,13.00
2019-03-27T21:05:12.483Z,14.63
2019-03-27T21:07:44.171Z,12.67
2019-03-27T21:10:14.773Z,11.83
2019-03-27T21:12:47.706Z,15.13
2019-03-27T21:15:19.751Z,13.70
2019-03-27T21:17:50.211Z,14.43
2019-03-27T21:20:21.151Z,14.80
2019-03-27T21:22:51.983Z,13.00
2019-03-27T21:25:22.589Z,14.67
2019-03-27T21:27:53.343Z,14.03
2019-03-27T21:30:23.923Z,16.47
2019-03-27T21:32:54.516Z,13.97
2019-03-27T21:35:25.480Z,14.87
2019-03-27T21:37:56.188Z,16.87
2019-03-27T21:40:26.824Z,19.27
2019-03-27T21:42:57.958Z,16.10
2019-03-27T21:45:28.360Z,18.03
2019-03-27T21:47:58.988Z,13.80
2019-03-27T21:50:31.131Z,12.43
2019-03-27T21:53:01.648Z,14.37
2019-03-27T21:55:42.651Z,14.93
2019-03-27T21:58:07.550Z,14.67
2019-03-27T22:00:39.314Z,13.37
2019-03-27T22:03:09.991Z,12.57
2019-03-27T22:05:40.529Z,14.00
2019-03-27T22:08:11.596Z,12.47
2019-03-27T22:10:42.225Z,13.67
2019-03-27T22:13:12.949Z,17.07
2019-03-27T22:15:45.094Z,12.27
2019-03-27T22:18:15.610Z,14.83
2019-03-27T22:20:46.423Z,13.93
2019-03-27T22:23:17.145Z,14.23
2019-03-27T22:25:47.805Z,14.30
2019-03-27T22:28:18.689Z,16.03
2019-03-27T22:30:49.746Z,9.23
2019-03-27T22:33:25.983Z,15.57
2019-03-27T22:35:56.551Z,15.90
2019-03-27T22:38:28.033Z,13.80
2019-03-27T22:40:59.346Z,14.77
2019-03-27T22:43:30.643Z,14.50
2019-03-27T22:46:01.105Z,15.20
2019-03-27T22:48:31.722Z,13.70
2019-03-27T22:51:02.711Z,14.30
2019-03-27T22:53:34.078Z,12.83
2019-03-27T22:56:06.690Z,17.87
2019-03-27T22:58:37.286Z,15.50
2019-03-27T23:01:08.145Z,16.73
2019-03-27T23:03:40.663Z,11.83
2019-03-27T23:06:11.280Z,16.03
2019-03-27T23:08:42.245Z,18.43
2019-03-27T23:11:12.636Z,13.83
2019-03-27T23:13:44.473Z,13.37
2019-03-27T23:16:15.052Z,15.60
2019-03-27T23:18:45.885Z,14.50
2019-03-27T23:21:16.645Z,14.53
2019-03-27T23:23:47.383Z,15.20
2019-03-27T23:26:17.871Z,18.53
2019-03-27T23:28:48.496Z,21.27
2019-03-27T23:31:19.117Z,19.60
2019-03-27T23:33:49.643Z,16.53
2019-03-27T23:36:20.040Z,15.77
2019-03-27T23:38:50.496Z,16.17
2019-03-27T23:41:21.120Z,17.50
2019-03-27T23:43:52.042Z,15.60
2019-03-27T23:46:22.393Z,18.43
2019-03-27T23:48:53.078Z,18.40
2019-03-27T23:51:23.690Z,15.47
2019-03-27T23:53:54.435Z,18.30
2019-03-27T23:56:24.938Z,19.13
2019-03-27T23:58:55.951Z,14.90
